createdAt,value
2023-04-22T00:04:34.423Z,98668.80
2023-04-22T00:09:36.622Z,98664.24
2023-04-22T00:14:38.976Z,98668.67
2023-04-22T00:19:41.767Z,98668.77
2023-04-22T00:24:43.920Z,98667.44
2023-04-22T00:29:45.753Z,98666.73
2023-04-22T00:34:47.394Z,98665.80
2023-04-22T00:39:49.098Z,98664.00
2023-04-22T00:44:52.144Z,98667.16
2023-04-22T00:49:55.001Z,98662.55
2023-04-22T00:54:57.233Z,98663.40
2023-04-22T00:59:59.294Z,98667.04
2023-04-22T01:05:02.128Z,98670.24
2023-04-22T01:10:04.713Z,98673.23
2023-04-22T01:15:07.587Z,98670.80
2023-04-22T01:20:10.566Z,98674.41
2023-04-22T01:25:13.093Z,98670.64
2023-04-22T01:30:15.733Z,98676.53
2023-04-22T01:35:17.520Z,98674.41
2023-04-22T01:40:22.792Z,98676.81
2023-04-22T01:45:24.755Z,98679.69
2023-04-22T01:50:26.553Z,98678.55
2023-04-22T01:55:28.472Z,98676.84
2023-04-22T02:00:30.293Z,98677.05
2023-04-22T02:05:32.663Z,98676.56
2023-04-22T02:10:34.513Z,98674.06
2023-04-22T02:15:36.332Z,98673.08
2023-04-22T02:20:38.367Z,98668.45
2023-04-22T02:25:41.032Z,98669.98
2023-04-22T02:30:42.975Z,98674.37
2023-04-22T02:35:44.916Z,98674.06
2023-04-22T02:40:51.021Z,98677.23
2023-04-22T02:45:52.767Z,98673.89
2023-04-22T02:50:54.615Z,98676.41
2023-04-22T02:55:58.352Z,98671.83
2023-04-22T03:01:01.173Z,98671.85
2023-04-22T03:06:02.961Z,98677.44
2023-04-22T03:11:05.037Z,98675.40
2023-04-22T03:16:07.527Z,98676.80
2023-04-22T03:21:09.321Z,98677.04
2023-04-22T03:26:11.276Z,98677.20
2023-04-22T03:31:16.621Z,98681.27
2023-04-22T03:36:19.512Z,98677.94
2023-04-22T03:41:21.421Z,98681.50
2023-04-22T03:46:23.832Z,98677.45
2023-04-22T03:51:32.835Z,98681.55
2023-04-22T03:56:36.877Z,98681.31
2023-04-22T04:07:13.833Z,98682.41
2023-04-22T04:12:15.795Z,98683.88
2023-04-22T04:17:18.865Z,98680.66
2023-04-22T04:22:21.380Z,98678.24
2023-04-22T04:27:29.855Z,98674.65
2023-04-22T04:32:34.445Z,98675.48
2023-04-22T04:37:40.467Z,98680.32
2023-04-22T04:42:44.377Z,98682.85
2023-04-22T04:47:55.464Z,98684.92
2023-04-22T04:53:04.092Z,98680.30
2023-04-22T04:58:20.832Z,98681.73
2023-04-22T05:03:25.752Z,98685.83
2023-04-22T05:08:29.427Z,98686.28
2023-04-22T05:13:37.663Z,98680.47
2023-04-22T05:18:40.814Z,98679.80
2023-04-22T05:23:44.125Z,98677.84
2023-04-22T05:28:46.102Z,98676.23
2023-04-22T05:33:48.584Z,98681.61
2023-04-22T05:38:50.805Z,98682.04
2023-04-22T05:43:52.612Z,98682.86
2023-04-22T05:48:55.893Z,98683.80
2023-04-22T05:54:18.071Z,98683.27
2023-04-22T05:59:21.825Z,98683.80
2023-04-22T06:04:24.789Z,98688.47
2023-04-22T06:09:26.874Z,98687.17
2023-04-22T06:14:28.646Z,98682.80
2023-04-22T06:19:30.551Z,98685.08
2023-04-22T06:24:32.680Z,98683.90
2023-04-22T06:29:34.646Z,98683.39
2023-04-22T06:34:38.704Z,98679.77
2023-04-22T06:39:41.366Z,98682.13
2023-04-22T06:45:00.664Z,98683.63
2023-04-22T06:50:35.522Z,98678.19
2023-04-22T06:55:37.395Z,98681.40
2023-04-22T07:00:39.394Z,98683.10
2023-04-22T07:05:41.355Z,98677.33
2023-04-22T07:10:43.761Z,98677.58
2023-04-22T07:16:08.716Z,98678.62
2023-04-22T07:21:10.491Z,98681.02
2023-04-22T07:26:12.575Z,98678.58
2023-04-22T07:31:14.398Z,98677.31
2023-04-22T07:36:16.301Z,98674.41
2023-04-22T07:41:37.080Z,98673.52
2023-04-22T07:46:38.885Z,98675.96
2023-04-22T07:51:41.202Z,98673.29
2023-04-22T07:56:42.945Z,98673.98
2023-04-22T08:01:46.673Z,98674.98
2023-04-22T08:06:48.372Z,98674.66
2023-04-22T08:11:50.114Z,98673.77
2023-04-22T08:16:52.618Z,98672.61
2023-04-22T08:21:54.335Z,98670.30
2023-04-22T08:26:56.740Z,98668.46
2023-04-22T08:31:58.429Z,98665.27
2023-04-22T08:37:00.184Z,98664.56
2023-04-22T08:42:02.287Z,98660.21
2023-04-22T08:47:05.064Z,98657.45
2023-04-22T08:52:10.706Z,98652.77
2023-04-22T08:57:15.192Z,98650.97
2023-04-22T09:02:20.696Z,98644.89
2023-04-22T09:07:25.213Z,98644.70
2023-04-22T09:12:27.606Z,98641.83
2023-04-22T09:17:33.898Z,98636.92
2023-04-22T09:22:43.249Z,98634.16
2023-04-22T09:27:52.460Z,98639.70
2023-04-22T09:33:02.408Z,98639.13
2023-04-22T09:38:08.252Z,98630.67
2023-04-22T09:43:11.556Z,98629.86
2023-04-22T09:48:15.657Z,98620.63
2023-04-22T09:53:19.874Z,98614.01
2023-04-22T09:58:27.916Z,98613.44
2023-04-22T10:03:30.050Z,98611.52
2023-04-22T10:08:33.513Z,98603.15
2023-04-22T10:13:36.472Z,98602.04
2023-04-22T10:18:39.957Z,98598.80
2023-04-22T10:23:47.910Z,98597.05
2023-04-22T10:28:51.087Z,98591.17
2023-04-22T10:34:11.330Z,98584.56
2023-04-22T10:39:16.716Z,98586.98
2023-04-22T10:44:22.118Z,98581.02
2023-04-22T10:49:26.058Z,98580.59
2023-04-22T10:54:30.591Z,98570.50
2023-04-22T10:59:35.746Z,98567.23
2023-04-22T11:04:38.798Z,98567.37
2023-04-22T11:09:41.680Z,98558.60
2023-04-22T11:14:43.846Z,98554.31
2023-04-22T11:19:47.237Z,98549.47
2023-04-22T11:25:01.472Z,98550.49
2023-04-22T11:30:13.022Z,98544.30
2023-04-22T11:35:15.941Z,98534.64
2023-04-22T11:40:29.872Z,98532.13
2023-04-22T11:45:34.867Z,98528.08
2023-04-22T11:50:42.285Z,98521.03
2023-04-22T11:55:46.839Z,98517.77
2023-04-22T12:00:50.880Z,98511.23
2023-04-22T12:05:53.708Z,98510.09
2023-04-22T12:10:57.735Z,98509.45
2023-04-22T12:16:02.087Z,98507.62
2023-04-22T12:21:07.069Z,98508.95
2023-04-22T12:26:09.157Z,98503.20
2023-04-22T12:31:12.811Z,98494.18
2023-04-22T12:36:14.665Z,98489.95
2023-04-22T12:41:16.595Z,98489.71
2023-04-22T12:46:18.426Z,98483.86
2023-04-22T12:51:20.166Z,98480.64
2023-04-22T12:56:21.974Z,98474.29
2023-04-22T13:01:23.796Z,98470.04
2023-04-22T13:06:25.535Z,98463.93
2023-04-22T13:11:27.466Z,98459.33
2023-04-22T13:16:29.308Z,98457.27
2023-04-22T13:21:31.953Z,98452.17
2023-04-22T13:26:33.717Z,98447.02
2023-04-22T13:31:35.654Z,98443.48
2023-04-22T13:36:37.507Z,98440.91
2023-04-22T13:41:39.218Z,98434.36
2023-04-22T13:46:42.073Z,98429.33
2023-04-22T13:51:43.768Z,98427.88
2023-04-22T13:56:45.785Z,98423.13
2023-04-22T14:01:47.509Z,98419.17
2023-04-22T14:06:50.476Z,98416.75
2023-04-22T14:11:52.328Z,98416.60
2023-04-22T14:16:54.433Z,98413.97
2023-04-22T14:21:56.265Z,98409.46
2023-04-22T14:27:04.109Z,98405.20
2023-04-22T14:32:06.033Z,98405.04
2023-04-22T14:37:07.767Z,98404.23
2023-04-22T14:42:10.628Z,98400.60
2023-04-22T14:47:12.356Z,98400.94
2023-04-22T14:52:14.134Z,98394.92
2023-04-22T14:57:15.841Z,98388.92
2023-04-22T15:02:17.715Z,98391.64
2023-04-22T15:07:19.634Z,98391.52
2023-04-22T15:12:21.411Z,98384.55
2023-04-22T15:17:24.143Z,98380.38
2023-04-22T15:22:25.915Z,98370.38
2023-04-22T15:27:27.642Z,98369.70
2023-04-22T15:32:29.379Z,98373.84
2023-04-22T15:37:31.058Z,98378.53
2023-04-22T15:42:32.733Z,98377.52
2023-04-22T15:47:36.423Z,98375.11
2023-04-22T15:52:38.841Z,98375.14
2023-04-22T15:57:40.736Z,98376.28
2023-04-22T16:02:43.789Z,98376.67
2023-04-22T16:07:46.407Z,98378.08
2023-04-22T16:12:49.347Z,98370.47
2023-04-22T16:17:51.327Z,98369.87
2023-04-22T16:22:53.186Z,98364.14
2023-04-22T16:27:55.224Z,98359.87
2023-04-22T16:32:57.031Z,98360.79
2023-04-22T16:37:58.836Z,98361.23
2023-04-22T16:43:33.899Z,98357.00
2023-04-22T16:48:36.019Z,98354.48
2023-04-22T16:53:37.831Z,98348.51
2023-04-22T16:58:39.575Z,98345.86
2023-04-22T17:03:41.863Z,98345.94
2023-04-22T17:08:43.882Z,98349.75
2023-04-22T17:13:45.707Z,98352.88
2023-04-22T17:18:47.436Z,98355.23
2023-04-22T17:23:49.963Z,98354.08
2023-04-22T17:28:52.060Z,98353.64
2023-04-22T17:33:53.797Z,98355.95
2023-04-22T17:38:55.527Z,98356.17
2023-04-22T17:43:59.008Z,98358.43
2023-04-22T17:49:01.272Z,98362.89
2023-04-22T17:54:05.208Z,98366.31
2023-04-22T17:59:12.444Z,98369.12
2023-04-22T18:04:14.494Z,98371.27
2023-04-22T18:09:16.442Z,98372.23
2023-04-22T18:14:20.859Z,98375.99
2023-04-22T18:19:22.768Z,98385.02
2023-04-22T18:24:24.748Z,98391.30
2023-04-22T18:29:26.453Z,98397.44
2023-04-22T18:34:29.153Z,98397.87
2023-04-22T18:39:31.184Z,98399.80
2023-04-22T18:44:32.861Z,98408.06
2023-04-22T18:49:34.584Z,98406.58
2023-04-22T18:54:36.298Z,98406.20
2023-04-22T18:59:38.199Z,98406.79
2023-04-22T19:04:40.391Z,98413.52
2023-04-22T19:09:42.434Z,98415.70
2023-04-22T19:14:44.320Z,98417.34
2023-04-22T19:19:46.590Z,98417.61
2023-04-22T19:24:48.348Z,98421.95
2023-04-22T19:29:53.422Z,98419.40
2023-04-22T19:34:55.396Z,98419.03
2023-04-22T19:39:57.651Z,98420.05
2023-04-22T19:44:59.559Z,98416.41
2023-04-22T19:50:02.694Z,98426.87
2023-04-22T19:55:09.329Z,98429.29
2023-04-22T20:00:11.840Z,98425.89
2023-04-22T20:05:18.519Z,98420.55
2023-04-22T20:10:22.716Z,98419.30
2023-04-22T20:15:24.710Z,98416.19
2023-04-22T20:20:27.612Z,98413.40
2023-04-22T20:25:30.991Z,98412.34
2023-04-22T20:30:33.337Z,98414.02
2023-04-22T20:35:38.240Z,98410.94
2023-04-22T20:40:41.144Z,98409.55
2023-04-22T20:45:43.295Z,98411.58
2023-04-22T20:50:46.147Z,98410.87
2023-04-22T20:55:47.859Z,98406.54
2023-04-22T21:00:49.660Z,98406.34
2023-04-22T21:05:52.392Z,98403.39
2023-04-22T21:11:00.298Z,98407.80
2023-04-22T21:16:11.755Z,98410.38
2023-04-22T21:21:16.156Z,98410.16
2023-04-22T21:26:18.743Z,98407.58
2023-04-22T21:31:22.006Z,98410.38
2023-04-22T21:36:25.027Z,98417.96
2023-04-22T21:41:27.623Z,98419.80
2023-04-22T21:46:29.713Z,98422.63
2023-04-22T21:51:34.375Z,98422.49
2023-04-22T21:56:36.414Z,98424.95
2023-04-22T22:01:38.173Z,98420.92
2023-04-22T22:06:39.928Z,98422.23
2023-04-22T22:11:41.719Z,98423.61
2023-04-22T22:16:43.895Z,98421.46
2023-04-22T22:21:46.295Z,98421.23
2023-04-22T22:26:48.060Z,98420.30
2023-04-22T22:31:50.002Z,98422.34
2023-04-22T22:36:51.759Z,98420.06
2023-04-22T22:41:55.417Z,98420.49
2023-04-22T22:46:57.203Z,98421.94
2023-04-22T22:52:01.544Z,98430.04
2023-04-22T22:57:05.691Z,98433.17
2023-04-22T23:02:07.535Z,98427.23
2023-04-22T23:07:10.401Z,98434.05
2023-04-22T23:12:32.132Z,98432.61
2023-04-22T23:17:36.227Z,98427.93
2023-04-22T23:22:40.686Z,98423.08
2023-04-22T23:27:43.303Z,98428.41
2023-04-22T23:32:49.756Z,98423.47
2023-04-22T23:37:54.720Z,98414.64
2023-04-22T23:42:56.992Z,98412.59
2023-04-22T23:48:01.195Z,98411.67
2023-04-22T23:53:02.966Z,98409.58
2023-04-22T23:58:04.923Z,98409.56
